Time;durP1;ratioP1;P1;durP2;ratioP2;P2;SDS_P1;SDS_P2;PMS_P1;PMS_P2;Temp;Humidity;BMP_temperature;BMP_pressure;BME280_temperature;BME280_humidity;BME280_pressure;Samples;Min_cycle;Max_cycle;Signal;HPM_P1;HPM_P2
2023/01/04 00:01:10;;;;;;;71.25;37.20;;;1.80;99.90;;;;;;2603292;54;20867;31
2023/01/04 00:03:46;;;;;;;62.92;35.40;;;1.80;99.90;;;;;;2603389;54;21221;31
2023/01/04 00:06:22;;;;;;;55.85;31.65;;;1.80;99.90;;;;;;2603340;54;20846;31
2023/01/04 00:08:58;;;;;;;53.85;26.80;;;1.80;99.90;;;;;;2603210;54;20101;31
2023/01/04 00:11:33;;;;;;;;;;;1.80;99.90;;;;;;2603438;54;20845;31
2023/01/04 00:14:09;;;;;;;49.75;30.27;;;1.70;99.90;;;;;;2603148;54;20797;31
2023/01/04 00:16:47;;;;;;;;;;;1.70;99.90;;;;;;2603443;54;21569;31
2023/01/04 00:19:23;;;;;;;44.50;25.03;;;1.70;99.90;;;;;;2602424;54;19949;31
2023/01/04 00:21:58;;;;;;;54.30;29.63;;;1.70;99.90;;;;;;2603131;54;20876;31
2023/01/04 00:24:33;;;;;;;72.43;39.50;;;1.70;99.90;;;;;;2603358;54;20085;31
2023/01/04 00:27:10;;;;;;;69.47;40.85;;;1.70;99.90;;;;;;2603078;54;20782;31
2023/01/04 00:29:45;;;;;;;67.25;38.70;;;1.70;99.90;;;;;;2602409;54;21023;31
2023/01/04 00:32:24;;;;;;;63.28;32.75;;;1.70;99.90;;;;;;2603074;54;20723;31
2023/01/04 00:35:00;;;;;;;62.00;37.07;;;1.70;99.90;;;;;;2602488;54;20019;31
2023/01/04 00:37:35;;;;;;;70.90;39.30;;;1.70;99.90;;;;;;2603355;54;20130;31
2023/01/04 00:40:12;;;;;;;61.28;35.22;;;1.80;99.90;;;;;;2602793;54;20026;31
2023/01/04 00:42:48;;;;;;;70.15;41.22;;;1.70;99.90;;;;;;2603094;54;20596;31
2023/01/04 00:45:24;;;;;;;71.13;36.88;;;1.70;99.90;;;;;;2701618;39;20567;31
2023/01/04 00:48:01;;;;;;;79.35;42.50;;;1.70;99.90;;;;;;2603143;54;20792;31
2023/01/04 00:50:38;;;;;;;75.32;38.30;;;1.80;99.90;;;;;;2603222;54;20912;31
2023/01/04 00:53:16;;;;;;;78.90;42.20;;;1.90;99.90;;;;;;2603166;54;21351;31
2023/01/04 00:55:51;;;;;;;68.18;34.97;;;1.70;99.90;;;;;;2701692;39;20600;31
2023/01/04 00:58:27;;;;;;;68.60;37.78;;;1.70;99.90;;;;;;2603021;54;20831;31
2023/01/04 01:01:07;;;;;;;70.50;37.05;;;1.70;99.90;;;;;;2602178;54;20053;31
2023/01/04 01:03:46;;;;;;;64.20;39.10;;;1.70;99.90;;;;;;2603165;54;20818;31
2023/01/04 01:06:21;;;;;;;71.40;39.80;;;1.60;99.90;;;;;;2621481;47;20023;31
2023/01/04 01:08:59;;;;;;;70.40;42.00;;;1.60;99.90;;;;;;2602972;54;20888;31
2023/01/04 01:11:37;;;;;;;68.60;37.30;;;1.60;99.90;;;;;;2603261;54;20833;31
2023/01/04 01:14:16;;;;;;;63.75;35.85;;;1.60;99.90;;;;;;2603146;54;20027;31
2023/01/04 01:16:58;;;;;;;79.40;44.85;;;1.60;99.90;;;;;;2603237;54;20754;31
2023/01/04 01:19:38;;;;;;;80.25;44.55;;;1.50;99.90;;;;;;2701569;39;20580;31
2023/01/04 01:22:13;;;;;;;69.35;40.05;;;1.50;99.90;;;;;;2603016;54;20030;31
2023/01/04 01:24:48;;;;;;;66.40;37.92;;;1.50;99.90;;;;;;2701503;39;20608;31
2023/01/04 01:27:24;;;;;;;69.82;38.08;;;1.50;99.90;;;;;;2602913;54;20041;31
2023/01/04 01:29:59;;;;;;;;;;;1.50;99.90;;;;;;2603066;54;20037;31
2023/01/04 01:32:36;;;;;;;77.35;41.65;;;1.50;99.90;;;;;;2621778;47;19941;31
2023/01/04 01:35:17;;;;;;;74.40;43.05;;;1.50;99.90;;;;;;2602924;54;20026;31
2023/01/04 01:37:51;;;;;;;60.47;34.35;;;1.40;99.90;;;;;;2602974;54;20893;31
2023/01/04 01:40:27;;;;;;;81.13;43.13;;;1.40;99.90;;;;;;2621470;47;20931;31
2023/01/04 01:43:02;;;;;;;76.60;42.53;;;1.40;99.90;;;;;;2602892;54;20892;31
2023/01/04 01:45:37;;;;;;;80.00;45.93;;;1.40;99.90;;;;;;2603089;54;20030;31
2023/01/04 01:48:15;;;;;;;74.30;43.25;;;1.40;99.90;;;;;;2602805;54;20350;31
2023/01/04 01:50:54;;;;;;;59.30;35.15;;;1.30;99.90;;;;;;2603226;54;20823;31
2023/01/04 01:53:31;;;;;;;55.17;33.85;;;1.30;99.90;;;;;;2603608;54;20141;31
2023/01/04 01:56:07;;;;;;;63.08;36.20;;;1.30;99.90;;;;;;2603684;54;20428;31
2023/01/04 01:58:46;;;;;;;79.90;41.00;;;1.30;99.90;;;;;;2602938;54;20026;31
2023/01/04 02:01:21;;;;;;;70.50;37.20;;;1.20;99.90;;;;;;2614848;46;20050;31
2023/01/04 02:03:57;;;;;;;68.80;35.58;;;1.20;99.90;;;;;;2603704;54;20708;31
2023/01/04 02:06:35;;;;;;;75.65;40.47;;;1.20;99.90;;;;;;2603902;54;20042;31
2023/01/04 02:09:10;;;;;;;74.10;43.20;;;1.20;99.90;;;;;;2603720;54;20097;31
2023/01/04 02:11:47;;;;;;;76.30;39.22;;;1.10;99.90;;;;;;2603653;54;20022;31
2023/01/04 02:14:29;;;;;;;73.97;39.08;;;1.20;99.90;;;;;;2603566;54;20888;31
2023/01/04 02:17:07;;;;;;;79.00;43.00;;;1.20;99.90;;;;;;2610226;39;20975;31
2023/01/04 02:20:12;;;;;;;78.55;40.80;;;1.20;99.90;;;;;;2603645;54;19942;31
2023/01/04 02:23:26;;;;;;;71.97;40.50;;;1.20;99.90;;;;;;2603708;54;20089;31
2023/01/04 02:26:31;;;;;;;66.30;37.33;;;1.20;99.90;;;;;;2603553;54;20029;31
2023/01/04 02:29:05;;;;;;;75.50;42.88;;;1.10;99.90;;;;;;2603752;54;20038;31
2023/01/04 02:31:43;;;;;;;73.53;38.95;;;1.10;99.90;;;;;;2603748;54;20030;31
2023/01/04 02:34:22;;;;;;;79.45;42.88;;;1.00;99.90;;;;;;2603660;54;19989;31
2023/01/04 02:36:59;;;;;;;83.30;44.53;;;1.00;99.90;;;;;;2603548;54;20790;31
2023/01/04 02:39:38;;;;;;;90.15;47.75;;;1.00;99.90;;;;;;2622355;46;20112;31
2023/01/04 02:42:15;;;;;;;73.80;41.47;;;1.00;99.90;;;;;;2603711;54;20031;31
2023/01/04 02:44:56;;;;;;;84.13;45.13;;;0.90;99.90;;;;;;2603506;54;20052;31
2023/01/04 02:50:34;;;;;;;84.20;45.27;;;0.90;99.90;;;;;;2603466;54;20100;31
2023/01/04 02:53:11;;;;;;;86.38;46.65;;;0.90;99.90;;;;;;2603670;54;21028;31
2023/01/04 02:55:50;;;;;;;77.32;41.53;;;0.90;99.90;;;;;;2603749;54;20085;31
2023/01/04 02:58:37;;;;;;;78.25;41.60;;;0.80;99.90;;;;;;2603732;54;20026;31
2023/01/04 03:06:58;;;;;;;;;;;0.80;99.90;;;;;;2603753;54;20030;31
2023/01/04 03:09:36;;;;;;;62.22;34.05;;;0.90;99.90;;;;;;2603585;54;19995;31
2023/01/04 03:15:02;;;;;;;65.28;34.83;;;0.80;99.90;;;;;;2603501;54;20354;31
2023/01/04 03:17:37;;;;;;;63.50;34.83;;;0.90;99.90;;;;;;2621733;46;20023;31
2023/01/04 03:20:14;;;;;;;72.40;38.63;;;0.80;99.90;;;;;;2603400;54;19969;31
2023/01/04 03:37:00;;;;;;;75.13;39.50;;;0.70;99.90;;;;;;2603522;54;20030;31
2023/01/04 03:51:03;;;;;;;62.22;33.83;;;0.70;99.90;;;;;;2603598;54;20060;31
2023/01/04 03:53:44;;;;;;;75.55;41.00;;;0.60;99.90;;;;;;2603290;54;20103;31
2023/01/04 03:56:21;;;;;;;55.05;32.38;;;0.60;99.90;;;;;;2603279;54;20562;31
2023/01/04 03:58:56;;;;;;;57.15;32.13;;;0.60;99.90;;;;;;2701829;39;20553;31
2023/01/04 04:01:32;;;;;;;75.00;42.07;;;0.60;99.90;;;;;;2603130;54;20057;31
2023/01/04 04:09:46;;;;;;;57.90;32.15;;;0.50;99.90;;;;;;2603261;54;20901;31
2023/01/04 04:12:20;;;;;;;54.53;29.85;;;0.50;99.90;;;;;;2603299;54;20933;31
2023/01/04 04:14:55;;;;;;;56.55;30.23;;;0.50;99.90;;;;;;2602914;54;20165;31
2023/01/04 04:17:31;;;;;;;68.40;35.30;;;0.50;99.90;;;;;;2603111;54;20898;31
2023/01/04 04:20:08;;;;;;;54.77;31.60;;;0.50;99.90;;;;;;2603301;54;20644;31
2023/01/04 04:22:44;;;;;;;56.40;31.25;;;0.50;99.90;;;;;;2700940;39;20477;31
2023/01/04 04:25:23;;;;;;;64.50;32.75;;;0.40;99.90;;;;;;2603265;54;20178;31
2023/01/04 04:27:59;;;;;;;58.97;32.60;;;0.40;99.90;;;;;;2603238;54;20088;31
2023/01/04 04:30:34;;;;;;;70.65;35.70;;;0.40;99.90;;;;;;2603223;54;20050;31
2023/01/04 04:33:09;;;;;;;67.82;35.75;;;0.30;99.90;;;;;;2603164;54;20855;31
2023/01/04 04:35:44;;;;;;;66.45;36.00;;;0.40;99.90;;;;;;2603448;54;20557;31
2023/01/04 04:38:20;;;;;;;55.65;31.25;;;0.30;99.90;;;;;;2603393;54;20022;31
2023/01/04 04:43:44;;;;;;;55.50;30.33;;;0.40;99.90;;;;;;2603496;54;20050;31
2023/01/04 04:46:20;;;;;;;68.32;35.60;;;0.40;99.90;;;;;;2603273;54;20816;31
2023/01/04 04:48:55;;;;;;;65.85;34.80;;;0.30;99.90;;;;;;2603235;54;20034;31
2023/01/04 04:51:29;;;;;;;68.35;35.35;;;0.30;99.90;;;;;;2603254;54;20085;31
2023/01/04 04:54:04;;;;;;;69.87;37.00;;;0.30;99.90;;;;;;2603144;54;20535;31
2023/01/04 04:56:39;;;;;;;73.10;36.77;;;0.30;99.90;;;;;;2603213;54;19990;31
2023/01/04 04:59:18;;;;;;;61.80;33.15;;;0.30;99.90;;;;;;2603146;54;20030;31
2023/01/04 05:01:55;;;;;;;71.63;35.42;;;0.30;99.90;;;;;;2603147;54;20973;31
2023/01/04 05:04:33;;;;;;;87.38;43.58;;;0.30;99.90;;;;;;2603025;54;20554;31
2023/01/04 05:07:07;;;;;;;120.22;63.95;;;0.20;99.90;;;;;;2603208;54;20030;31
2023/01/04 05:09:47;;;;;;;182.75;80.90;;;0.20;99.90;;;;;;2603023;54;20034;31
2023/01/04 05:15:14;;;;;;;281.55;163.25;;;0.20;99.90;;;;;;2602985;54;20035;31
2023/01/04 05:17:49;;;;;;;181.98;105.78;;;0.20;99.90;;;;;;2602518;54;20821;31
2023/01/04 05:20:24;;;;;;;81.53;47.28;;;0.20;99.90;;;;;;2602894;54;20093;31
2023/01/04 05:22:59;;;;;;;156.95;97.05;;;0.10;99.90;;;;;;2602953;54;19972;31
2023/01/04 05:25:33;;;;;;;156.60;101.30;;;0.10;99.90;;;;;;2701866;39;20997;31
2023/01/04 05:28:09;;;;;;;123.65;82.45;;;0.10;99.90;;;;;;2603753;54;21100;31
2023/01/04 05:30:49;;;;;;;82.43;53.28;;;0.10;99.90;;;;;;2622122;46;20030;31
2023/01/04 05:33:25;;;;;;;60.58;36.55;;;0.10;99.90;;;;;;2702481;39;21596;31
2023/01/04 05:36:00;;;;;;;58.50;31.50;;;0.10;99.90;;;;;;2621843;46;20101;31
2023/01/04 05:38:35;;;;;;;58.40;31.60;;;0.10;99.90;;;;;;2603964;54;20917;31
2023/01/04 05:42:24;;;;;;;56.25;30.15;;;0.00;99.90;;;;;;2603722;54;20027;31
2023/01/04 05:44:05;;;;;;;54.57;29.20;;;0.00;99.90;;;;;;2603981;54;20073;31
2023/01/04 05:46:44;;;;;;;56.25;30.95;;;0.00;99.90;;;;;;2603915;54;20046;31
2023/01/04 05:49:18;;;;;;;73.25;41.60;;;0.00;99.90;;;;;;2621989;46;20029;31
2023/01/04 05:51:53;;;;;;;89.80;52.55;;;-0.10;99.90;;;;;;2603649;54;20129;31
2023/01/04 05:54:28;;;;;;;55.28;32.00;;;0.00;99.90;;;;;;2603632;54;20053;31
2023/01/04 05:57:04;;;;;;;53.50;30.20;;;-0.10;99.90;;;;;;2603747;54;21365;31
2023/01/04 05:59:39;;;;;;;56.20;29.77;;;-0.10;99.90;;;;;;2603652;54;21573;31
2023/01/04 06:02:20;;;;;;;42.05;25.02;;;-0.10;99.90;;;;;;2603598;54;21626;31
2023/01/04 06:04:55;;;;;;;47.15;27.27;;;-0.10;99.90;;;;;;2603886;54;20030;31
2023/01/04 06:07:33;;;;;;;46.27;26.20;;;-0.10;99.90;;;;;;2603766;54;20918;31
2023/01/04 06:10:10;;;;;;;40.10;19.43;;;-0.10;99.90;;;;;;2603587;54;20052;31
2023/01/04 06:12:45;;;;;;;44.90;25.13;;;-0.10;99.90;;;;;;2702390;39;20545;31
2023/01/04 06:15:21;;;;;;;46.17;24.75;;;0.00;99.90;;;;;;2702184;39;20564;31
2023/01/04 06:17:59;;;;;;;48.85;29.70;;;0.00;99.90;;;;;;2603609;54;20587;31
2023/01/04 06:20:38;;;;;;;55.40;34.67;;;0.00;99.90;;;;;;2603544;54;20941;31
2023/01/04 06:23:14;;;;;;;49.05;27.00;;;0.00;99.90;;;;;;2603635;54;20032;31
2023/01/04 06:25:46;;;;;;;;;;;-0.10;99.90;;;;;;2702580;39;21070;31
2023/01/04 06:28:23;;;;;;;46.00;24.80;;;0.00;99.90;;;;;;2621434;46;19961;31
2023/01/04 06:31:01;;;;;;;47.97;25.27;;;0.00;99.90;;;;;;2702248;39;21696;31
2023/01/04 06:33:40;;;;;;;45.47;24.58;;;0.10;99.90;;;;;;2603572;54;20917;31
2023/01/04 06:36:15;;;;;;;43.55;23.63;;;0.20;99.90;;;;;;2702118;39;21622;31
2023/01/04 06:38:54;;;;;;;44.00;24.67;;;0.20;99.90;;;;;;2603434;54;20050;31
2023/01/04 06:41:32;;;;;;;47.42;25.63;;;0.20;99.90;;;;;;2603898;54;20027;31
2023/01/04 06:44:08;;;;;;;40.17;22.35;;;0.20;99.90;;;;;;2622016;46;20030;31
2023/01/04 06:46:42;;;;;;;34.45;20.92;;;0.20;99.90;;;;;;2602908;54;20109;31
2023/01/04 06:49:21;;;;;;;37.65;21.25;;;0.20;99.90;;;;;;2603703;54;20033;31
2023/01/04 06:51:55;;;;;;;41.03;22.05;;;0.20;99.90;;;;;;2603574;54;20232;31
2023/01/04 06:54:32;;;;;;;43.45;23.20;;;0.20;99.90;;;;;;2603483;54;20602;31
2023/01/04 06:57:07;;;;;;;39.20;23.55;;;0.20;99.90;;;;;;2603516;54;20839;31
2023/01/04 06:59:43;;;;;;;37.77;21.63;;;0.20;99.90;;;;;;2603305;54;20026;31
2023/01/04 07:02:21;;;;;;;40.65;21.80;;;0.20;99.90;;;;;;2603485;54;20158;31
2023/01/04 07:05:00;;;;;;;37.05;22.67;;;0.20;99.90;;;;;;2603455;54;20611;31
2023/01/04 07:07:35;;;;;;;38.83;22.63;;;0.20;99.90;;;;;;2603372;54;21014;31
2023/01/04 07:10:11;;;;;;;39.90;21.65;;;0.30;99.90;;;;;;2603375;54;20105;31
2023/01/04 07:12:47;;;;;;;57.17;29.70;;;0.30;99.90;;;;;;2603444;54;20096;31
2023/01/04 07:15:23;;;;;;;66.30;33.97;;;0.30;99.90;;;;;;2621851;46;20026;31
2023/01/04 07:18:14;;;;;;;70.22;34.47;;;0.40;99.90;;;;;;2603537;54;20027;31
2023/01/04 07:20:52;;;;;;;68.23;33.77;;;0.50;99.90;;;;;;2602848;54;20030;31
2023/01/04 07:23:27;;;;;;;41.03;23.60;;;0.60;99.90;;;;;;2621431;46;20266;31
2023/01/04 07:26:04;;;;;;;34.55;17.25;;;0.70;99.90;;;;;;2603449;54;20799;31
2023/01/04 07:31:27;;;;;;;23.85;15.90;;;1.10;99.90;;;;;;2603337;54;20854;31
2023/01/04 07:34:02;;;;;;;23.35;14.93;;;1.60;99.90;;;;;;2603490;54;20030;31
2023/01/04 07:36:40;;;;;;;22.77;13.48;;;2.10;99.90;;;;;;2603509;54;20038;31
2023/01/04 07:39:15;;;;;;;17.40;12.50;;;2.60;99.90;;;;;;2603151;54;20089;31
2023/01/04 07:41:51;;;;;;;18.58;11.73;;;3.10;99.90;;;;;;2602599;54;21513;31
2023/01/04 07:44:27;;;;;;;16.90;11.15;;;3.60;99.90;;;;;;2621578;46;20754;31
2023/01/04 07:47:02;;;;;;;17.17;12.05;;;4.10;99.90;;;;;;2603245;54;20935;31
2023/01/04 07:49:40;;;;;;;14.48;10.35;;;4.60;99.90;;;;;;2602514;54;20026;31
2023/01/04 07:52:19;;;;;;;18.67;10.77;;;5.10;99.90;;;;;;2603189;54;20877;31
2023/01/04 07:54:55;;;;;;;14.43;9.97;;;5.80;99.90;;;;;;2603254;54;20836;31
2023/01/04 07:57:31;;;;;;;12.32;9.40;;;6.20;99.90;;;;;;2603365;54;20940;31
2023/01/04 08:00:07;;;;;;;12.55;9.40;;;6.30;99.90;;;;;;2603410;54;20027;31
2023/01/04 08:02:45;;;;;;;14.93;9.48;;;6.50;99.90;;;;;;2603188;54;20033;31
2023/01/04 08:05:23;;;;;;;21.65;10.10;;;6.50;99.90;;;;;;2603365;54;20042;31
2023/01/04 08:07:57;;;;;;;12.25;8.45;;;6.70;99.90;;;;;;2603477;54;20022;31
2023/01/04 08:10:36;;;;;;;13.10;9.25;;;6.70;99.90;;;;;;2603433;54;20914;31
2023/01/04 08:13:11;;;;;;;12.90;9.25;;;6.80;99.90;;;;;;2603274;54;20917;31
2023/01/04 08:15:48;;;;;;;11.00;8.40;;;6.80;99.90;;;;;;2603350;54;20093;31
2023/01/04 08:18:22;;;;;;;11.88;8.80;;;6.90;99.90;;;;;;2603539;54;20035;31
2023/01/04 08:21:04;;;;;;;12.00;8.80;;;7.00;99.90;;;;;;2603252;54;20966;31
2023/01/04 08:23:40;;;;;;;11.33;8.00;;;7.10;99.90;;;;;;2603361;54;20092;31
2023/01/04 08:26:18;;;;;;;10.60;7.67;;;7.20;99.90;;;;;;2603371;54;20832;31
2023/01/04 08:28:55;;;;;;;15.18;8.65;;;7.50;99.90;;;;;;2603352;54;20049;31
2023/01/04 08:31:32;;;;;;;13.55;9.02;;;7.50;99.90;;;;;;2603163;54;20031;31
2023/01/04 08:34:09;;;;;;;12.10;8.20;;;7.30;99.90;;;;;;2603079;54;20816;31
2023/01/04 08:36:49;;;;;;;14.30;8.45;;;7.10;99.90;;;;;;2603190;54;21276;31
2023/01/04 08:39:28;;;;;;;14.57;8.52;;;7.00;99.90;;;;;;2602899;54;20033;31
2023/01/04 08:42:08;;;;;;;13.70;8.30;;;6.90;99.90;;;;;;2602952;54;20962;31
2023/01/04 08:44:59;;;;;;;15.10;8.40;;;6.80;99.90;;;;;;2603246;54;20692;31
2023/01/04 08:47:36;;;;;;;15.77;8.20;;;6.70;99.90;;;;;;2602906;54;20925;31
2023/01/04 08:50:13;;;;;;;13.70;8.43;;;6.60;99.90;;;;;;2603014;54;20714;31
2023/01/04 08:52:49;;;;;;;13.85;8.25;;;6.40;99.90;;;;;;2603078;54;20026;31
2023/01/04 08:55:26;;;;;;;13.38;7.97;;;6.30;99.90;;;;;;2602978;54;20968;31
2023/01/04 08:58:06;;;;;;;13.25;9.27;;;6.30;99.90;;;;;;2621392;46;20023;31
2023/01/04 09:00:44;;;;;;;17.47;8.87;;;6.30;99.90;;;;;;2603827;54;20034;31
2023/01/04 09:03:20;;;;;;;13.07;7.50;;;6.20;99.90;;;;;;2604603;54;19935;31
2023/01/04 09:05:56;;;;;;;12.50;9.10;;;6.20;99.90;;;;;;2604976;54;20269;31
2023/01/04 09:08:33;;;;;;;12.80;9.53;;;6.10;99.90;;;;;;2605045;54;20061;31
2023/01/04 09:11:08;;;;;;;14.02;8.32;;;6.00;99.90;;;;;;2604805;54;20129;31
2023/01/04 09:13:46;;;;;;;12.47;8.50;;;6.00;99.90;;;;;;2604979;54;20050;31
2023/01/04 09:16:21;;;;;;;15.25;7.90;;;5.90;99.90;;;;;;2604690;54;20292;31
2023/01/04 09:18:58;;;;;;;18.33;8.50;;;5.90;99.90;;;;;;2604871;54;20904;31
2023/01/04 09:21:32;;;;;;;15.25;7.78;;;5.80;99.90;;;;;;2604790;54;20034;31
2023/01/04 09:24:08;;;;;;;12.60;7.53;;;5.80;99.90;;;;;;2604753;54;20034;31
2023/01/04 09:26:42;;;;;;;11.10;7.30;;;5.80;99.90;;;;;;2623204;46;20242;31
2023/01/04 09:29:20;;;;;;;11.50;7.40;;;5.80;99.90;;;;;;2603933;54;20851;31
2023/01/04 09:31:55;;;;;;;13.55;6.40;;;5.90;99.90;;;;;;2604800;54;20105;31
2023/01/04 09:34:32;;;;;;;12.20;6.00;;;5.90;99.90;;;;;;2604598;54;20812;31
2023/01/04 09:37:08;;;;;;;11.80;6.38;;;5.90;99.90;;;;;;2774628;31;20608;31
2023/01/04 09:39:42;;;;;;;9.53;5.93;;;6.00;99.90;;;;;;2604664;54;20930;31
2023/01/04 09:42:20;;;;;;;8.15;5.75;;;6.00;99.90;;;;;;2604523;54;20018;31
2023/01/04 09:45:00;;;;;;;10.18;6.07;;;6.10;99.90;;;;;;2604736;54;20144;31
2023/01/04 09:47:57;;;;;;;11.45;5.82;;;6.10;99.90;;;;;;2604695;54;20901;31
2023/01/04 09:50:36;;;;;;;10.82;5.75;;;6.20;99.90;;;;;;2604659;54;20035;31
2023/01/04 09:53:13;;;;;;;14.50;6.53;;;6.30;99.90;;;;;;2604530;54;20034;31
2023/01/04 09:55:52;;;;;;;9.23;5.35;;;6.40;99.90;;;;;;2604602;54;20026;31
2023/01/04 09:58:26;;;;;;;9.25;4.90;;;6.40;99.90;;;;;;2604644;54;20763;31
2023/01/04 10:01:07;;;;;;;8.88;4.85;;;6.50;99.90;;;;;;2604758;54;20045;31
2023/01/04 10:03:43;;;;;;;7.45;4.45;;;6.50;99.90;;;;;;2604653;54;20821;31
2023/01/04 10:06:22;;;;;;;12.13;4.80;;;6.60;99.90;;;;;;2604694;54;20046;31
2023/01/04 10:09:01;;;;;;;6.80;4.43;;;6.60;99.90;;;;;;2604364;54;20026;31
2023/01/04 10:11:44;;;;;;;9.13;5.00;;;6.70;99.90;;;;;;2604331;54;20860;31
2023/01/04 10:14:40;;;;;;;9.75;5.70;;;6.70;99.90;;;;;;2702032;39;20482;31
2023/01/04 10:20:14;;;;;;;6.00;3.60;;;6.90;99.90;;;;;;2621995;46;20038;31
2023/01/04 10:23:11;;;;;;;9.63;3.60;;;7.00;99.90;;;;;;2603383;54;20640;31
2023/01/04 10:25:49;;;;;;;5.70;3.35;;;7.20;99.90;;;;;;2603444;54;20027;31
2023/01/04 10:28:42;;;;;;;6.70;3.10;;;7.30;99.90;;;;;;2701931;39;21521;31
2023/01/04 10:31:18;;;;;;;4.70;2.80;;;7.50;99.90;;;;;;2701982;39;20480;31
2023/01/04 10:34:26;;;;;;;7.13;2.90;;;7.60;99.90;;;;;;2603685;54;20801;31
2023/01/04 10:37:20;;;;;;;6.75;2.33;;;7.70;99.90;;;;;;2603488;54;20971;31
2023/01/04 10:39:57;;;;;;;4.93;2.42;;;7.80;99.90;;;;;;2603370;54;20921;31
2023/01/04 10:42:34;;;;;;;5.60;2.67;;;7.80;99.90;;;;;;2603460;54;20029;31
2023/01/04 10:45:14;;;;;;;6.60;3.03;;;7.90;99.90;;;;;;2603428;54;20971;31
2023/01/04 10:47:56;;;;;;;16.00;2.45;;;7.90;99.90;;;;;;2603516;54;20029;31
2023/01/04 10:50:35;;;;;;;3.93;2.00;;;7.90;99.90;;;;;;2603678;54;20896;31
2023/01/04 10:53:15;;;;;;;4.35;2.22;;;7.90;99.90;;;;;;2603215;54;20023;31
2023/01/04 10:55:52;;;;;;;5.10;2.00;;;7.90;99.90;;;;;;2603505;54;20914;31
2023/01/04 10:58:48;;;;;;;3.65;1.70;;;7.90;99.90;;;;;;2603454;54;20809;31
2023/01/04 11:01:24;;;;;;;3.75;1.83;;;8.00;99.90;;;;;;2603360;54;20904;31
2023/01/04 11:04:00;;;;;;;5.93;2.03;;;7.90;99.90;;;;;;2603374;54;20823;31
2023/01/04 11:06:36;;;;;;;3.25;1.55;;;7.90;99.90;;;;;;2603342;54;21431;31
2023/01/04 11:09:16;;;;;;;;;;;7.90;99.90;;;;;;2702374;39;20512;31
2023/01/04 11:11:59;;;;;;;3.35;1.40;;;7.90;99.90;;;;;;2603625;54;19941;31
2023/01/04 11:14:36;;;;;;;2.72;1.52;;;8.00;99.90;;;;;;2603472;54;20825;31
2023/01/04 11:17:12;;;;;;;3.58;1.55;;;7.90;99.90;;;;;;2602518;54;20936;31
2023/01/04 11:19:50;;;;;;;3.67;1.90;;;7.90;99.90;;;;;;2602624;54;20030;31
2023/01/04 11:22:28;;;;;;;5.63;1.88;;;7.90;99.90;;;;;;2603222;54;20026;31
2023/01/04 11:25:08;;;;;;;3.95;1.80;;;7.90;99.90;;;;;;2603354;54;20033;31
2023/01/04 11:28:05;;;;;;;3.85;1.60;;;7.90;99.90;;;;;;2603126;54;20022;31
2023/01/04 11:30:47;;;;;;;3.97;2.05;;;8.00;99.90;;;;;;2603308;54;20117;31
2023/01/04 11:33:23;;;;;;;4.85;1.70;;;8.00;99.90;;;;;;2603440;54;20042;31
2023/01/04 11:36:00;;;;;;;4.77;1.90;;;8.00;99.90;;;;;;2603282;54;20064;31
2023/01/04 11:38:36;;;;;;;4.17;1.87;;;8.00;99.90;;;;;;2603454;54;20140;31
2023/01/04 11:41:22;;;;;;;;;;;8.00;99.90;;;;;;2603513;54;20835;31
2023/01/04 11:43:59;;;;;;;6.18;1.55;;;8.10;99.90;;;;;;2603250;54;20782;31
2023/01/04 11:46:35;;;;;;;3.15;1.73;;;8.10;99.90;;;;;;2603265;54;20050;31
2023/01/04 11:49:18;;;;;;;3.47;1.98;;;8.10;99.90;;;;;;2603345;54;20850;31
2023/01/04 11:51:55;;;;;;;4.05;1.80;;;8.00;99.90;;;;;;2603523;54;20029;31
2023/01/04 11:54:29;;;;;;;3.78;2.03;;;8.00;99.90;;;;;;2603253;54;20022;31
2023/01/04 11:57:11;;;;;;;3.58;1.67;;;8.00;99.90;;;;;;2603120;54;20054;31
2023/01/04 11:59:47;;;;;;;4.65;2.20;;;7.90;99.90;;;;;;2603001;54;20073;31
2023/01/04 12:02:23;;;;;;;5.20;2.08;;;7.90;99.90;;;;;;2603155;54;20088;31
2023/01/04 12:05:21;;;;;;;4.65;1.80;;;7.80;99.90;;;;;;2603174;54;20049;31
2023/01/04 12:08:03;;;;;;;2.92;1.90;;;7.80;99.90;;;;;;2603190;54;20952;31
2023/01/04 12:10:39;;;;;;;3.40;1.75;;;7.80;99.90;;;;;;2603157;54;20026;31
2023/01/04 12:13:16;;;;;;;5.50;1.98;;;7.80;99.90;;;;;;2603177;54;20046;31
2023/01/04 12:15:55;;;;;;;3.72;1.92;;;7.70;99.90;;;;;;2603489;54;20026;31
2023/01/04 12:18:32;;;;;;;3.00;1.50;;;7.70;99.90;;;;;;2603027;54;20026;31
2023/01/04 12:21:10;;;;;;;3.80;1.60;;;7.70;99.90;;;;;;2603360;54;20919;31
2023/01/04 12:23:47;;;;;;;4.05;2.10;;;7.70;99.90;;;;;;2602972;54;20109;31
2023/01/04 12:26:22;;;;;;;3.05;2.08;;;7.60;99.90;;;;;;2602990;54;20862;31
2023/01/04 12:28:57;;;;;;;3.87;2.03;;;7.60;99.90;;;;;;2701698;39;20466;31
2023/01/04 12:31:35;;;;;;;2.90;1.60;;;7.70;99.90;;;;;;2621563;46;20030;31
2023/01/04 12:34:40;;;;;;;2.72;1.75;;;7.70;99.90;;;;;;2603249;54;20037;31
2023/01/04 12:39:48;;;;;;;3.00;1.55;;;7.70;99.90;;;;;;2603230;54;20031;31
2023/01/04 12:42:25;;;;;;;3.37;1.80;;;7.70;99.90;;;;;;2602910;54;20030;31
2023/01/04 12:45:24;;;;;;;2.80;1.58;;;7.70;99.90;;;;;;2603136;54;20161;31
2023/01/04 12:51:23;;;;;;;2.90;1.45;;;7.80;99.90;;;;;;2603219;54;20033;31
2023/01/04 12:54:07;;;;;;;2.42;1.40;;;7.80;99.90;;;;;;2603203;54;20057;31
2023/01/04 12:57:12;;;;;;;5.25;1.90;;;7.80;99.90;;;;;;2603095;54;20100;31
2023/01/04 12:59:56;;;;;;;5.63;2.27;;;7.80;99.90;;;;;;2602950;54;20921;31
2023/01/04 13:02:31;;;;;;;3.60;1.90;;;7.80;99.90;;;;;;2602725;54;20037;31
2023/01/04 13:05:24;;;;;;;2.85;1.75;;;7.80;99.90;;;;;;2603208;54;20853;31
2023/01/04 13:08:17;;;;;;;3.70;2.15;;;7.80;99.90;;;;;;2603021;54;20049;31
2023/01/04 13:10:56;;;;;;;5.00;2.10;;;7.80;99.90;;;;;;2603190;54;20026;31
2023/01/04 13:13:33;;;;;;;4.00;1.90;;;7.80;99.90;;;;;;2603088;54;20912;31
2023/01/04 13:16:17;;;;;;;3.50;2.10;;;7.80;99.90;;;;;;2603125;54;20030;31
2023/01/04 13:18:54;;;;;;;3.97;1.85;;;7.70;99.90;;;;;;2603077;54;20911;31
2023/01/04 13:21:30;;;;;;;4.50;2.05;;;7.70;99.90;;;;;;2602888;54;20917;31
2023/01/04 13:24:05;;;;;;;;;;;7.60;99.90;;;;;;2603396;54;20926;31
2023/01/04 13:26:47;;;;;;;4.82;2.00;;;7.60;99.90;;;;;;2602110;54;20806;31
2023/01/04 13:29:26;;;;;;;3.20;1.75;;;7.50;99.90;;;;;;2603045;54;20895;31
2023/01/04 13:32:02;;;;;;;4.10;2.13;;;7.50;99.90;;;;;;2603004;54;20798;31
2023/01/04 13:34:37;;;;;;;;;;;7.40;99.90;;;;;;2603089;54;20822;31
2023/01/04 13:37:20;;;;;;;4.88;2.00;;;7.40;99.90;;;;;;2602886;54;20777;31
2023/01/04 13:40:03;;;;;;;3.13;1.98;;;7.40;99.90;;;;;;2701184;39;21361;31
2023/01/04 13:42:42;;;;;;;4.25;1.90;;;7.40;99.90;;;;;;2603027;54;20158;31
2023/01/04 13:45:31;;;;;;;4.28;1.95;;;7.30;99.90;;;;;;2602568;54;20908;31
2023/01/04 13:48:08;;;;;;;4.45;2.10;;;7.30;99.90;;;;;;2702011;39;21338;31
2023/01/04 13:50:46;;;;;;;5.13;2.37;;;7.30;99.90;;;;;;2603587;54;20045;31
2023/01/04 13:53:22;;;;;;;5.10;1.90;;;7.30;99.90;;;;;;2603781;54;20049;31
2023/01/04 13:55:59;;;;;;;4.22;2.13;;;7.30;99.90;;;;;;2603742;54;20877;31
2023/01/04 13:58:37;;;;;;;4.35;2.22;;;7.30;99.90;;;;;;2603880;54;20030;31
2023/01/04 14:01:16;;;;;;;4.13;2.10;;;7.30;99.90;;;;;;2603678;54;21649;31
2023/01/04 14:03:52;;;;;;;3.77;2.10;;;7.30;99.90;;;;;;2603753;54;20027;31
2023/01/04 14:06:31;;;;;;;3.97;2.42;;;7.30;99.90;;;;;;2764176;31;20053;31
2023/01/04 14:09:09;;;;;;;5.00;2.00;;;7.20;99.90;;;;;;2603435;54;20034;31
2023/01/04 14:12:00;;;;;;;5.17;2.17;;;7.20;99.90;;;;;;2603676;54;20793;31
2023/01/04 14:14:50;;;;;;;3.35;2.00;;;7.20;99.90;;;;;;2603602;54;20120;31
2023/01/04 14:17:30;;;;;;;4.07;2.45;;;7.20;99.90;;;;;;2603629;54;20546;31
2023/01/04 14:20:06;;;;;;;4.72;2.30;;;7.20;99.90;;;;;;2603629;54;20099;31
2023/01/04 14:22:53;;;;;;;6.45;2.10;;;7.20;99.90;;;;;;2603698;54;20022;31
2023/01/04 14:25:48;;;;;;;7.18;2.13;;;7.20;99.90;;;;;;2603495;54;20023;31
2023/01/04 14:28:29;;;;;;;5.40;2.20;;;7.20;99.90;;;;;;2603429;54;20842;31
2023/01/04 14:31:33;;;;;;;4.03;2.22;;;7.10;99.90;;;;;;2603538;54;20022;31
2023/01/04 14:36:40;;;;;;;9.10;2.80;;;7.10;99.90;;;;;;2603748;54;20820;31
2023/01/04 14:39:25;;;;;;;6.40;2.65;;;7.10;99.90;;;;;;2603367;54;20048;31
2023/01/04 14:42:02;;;;;;;6.57;2.70;;;7.10;99.90;;;;;;2603648;54;20046;31
2023/01/04 14:44:40;;;;;;;5.78;2.53;;;7.10;99.90;;;;;;2621876;46;20968;31
2023/01/04 14:47:20;;;;;;;4.40;2.90;;;7.10;99.90;;;;;;2603601;54;20081;31
2023/01/04 14:49:55;;;;;;;5.00;2.67;;;7.00;99.90;;;;;;2603440;54;25051;31
2023/01/04 14:52:30;;;;;;;7.13;3.27;;;7.00;99.90;;;;;;2603336;54;20951;31
2023/01/04 14:55:06;;;;;;;6.60;3.00;;;6.90;99.90;;;;;;2603526;54;20034;31
2023/01/04 14:57:44;;;;;;;4.45;2.60;;;6.90;99.90;;;;;;2603242;54;20799;31
2023/01/04 15:00:20;;;;;;;7.55;3.30;;;6.90;99.90;;;;;;2603140;54;20620;31